sensor_id;sensor_type;location;lat;lon;timestamp;P1;durP1;ratioP1;P2;durP2;ratioP2
50773;SDS011;36745;48.544;8.918;2023-02-15T00:01:26;51.10;;;26.63;;
50773;SDS011;36745;48.544;8.918;2023-02-15T00:04:46;49.45;;;25.25;;
50773;SDS011;36745;48.544;8.918;2023-02-15T00:08:05;45.22;;;25.10;;
50773;SDS011;36745;48.544;8.918;2023-02-15T00:11:25;41.40;;;25.17;;
50773;SDS011;36745;48.544;8.918;2023-02-15T00:15:09;45.97;;;25.10;;
50773;SDS011;36745;48.544;8.918;2023-02-15T00:18:29;45.13;;;25.67;;
50773;SDS011;36745;48.544;8.918;2023-02-15T00:21:49;46.30;;;25.33;;
50773;SDS011;36745;48.544;8.918;2023-02-15T00:25:09;45.75;;;25.52;;
50773;SDS011;36745;48.544;8.918;2023-02-15T00:28:29;42.55;;;25.25;;
50773;SDS011;36745;48.544;8.918;2023-02-15T00:31:49;49.72;;;24.02;;
50773;SDS011;36745;48.544;8.918;2023-02-15T00:35:09;45.85;;;25.55;;
50773;SDS011;36745;48.544;8.918;2023-02-15T00:38:30;45.97;;;25.15;;
50773;SDS011;36745;48.544;8.918;2023-02-15T00:41:50;45.15;;;25.13;;
50773;SDS011;36745;48.544;8.918;2023-02-15T00:45:10;41.63;;;23.75;;
50773;SDS011;36745;48.544;8.918;2023-02-15T00:48:30;48.85;;;24.80;;
50773;SDS011;36745;48.544;8.918;2023-02-15T00:51:49;45.70;;;23.65;;
50773;SDS011;36745;48.544;8.918;2023-02-15T00:55:09;45.67;;;25.75;;
50773;SDS011;36745;48.544;8.918;2023-02-15T00:58:29;44.22;;;25.15;;
50773;SDS011;36745;48.544;8.918;2023-02-15T01:01:49;46.70;;;25.77;;
50773;SDS011;36745;48.544;8.918;2023-02-15T01:05:08;42.85;;;26.25;;
50773;SDS011;36745;48.544;8.918;2023-02-15T01:08:28;48.47;;;26.42;;
50773;SDS011;36745;48.544;8.918;2023-02-15T01:11:48;43.33;;;25.55;;
50773;SDS011;36745;48.544;8.918;2023-02-15T01:15:08;46.35;;;25.45;;
50773;SDS011;36745;48.544;8.918;2023-02-15T01:18:28;50.63;;;26.92;;
50773;SDS011;36745;48.544;8.918;2023-02-15T01:21:48;45.42;;;25.08;;
50773;SDS011;36745;48.544;8.918;2023-02-15T01:25:08;40.78;;;24.23;;
50773;SDS011;36745;48.544;8.918;2023-02-15T01:28:28;42.08;;;24.02;;
50773;SDS011;36745;48.544;8.918;2023-02-15T01:31:48;45.88;;;24.35;;
50773;SDS011;36745;48.544;8.918;2023-02-15T01:35:08;42.72;;;24.83;;
50773;SDS011;36745;48.544;8.918;2023-02-15T01:38:28;45.63;;;24.50;;
50773;SDS011;36745;48.544;8.918;2023-02-15T01:41:48;45.28;;;24.52;;
50773;SDS011;36745;48.544;8.918;2023-02-15T01:45:18;41.63;;;23.75;;
50773;SDS011;36745;48.544;8.918;2023-02-15T01:48:40;43.97;;;24.40;;
50773;SDS011;36745;48.544;8.918;2023-02-15T01:52:04;47.80;;;24.30;;
50773;SDS011;36745;48.544;8.918;2023-02-15T01:55:25;47.45;;;24.25;;
50773;SDS011;36745;48.544;8.918;2023-02-15T01:58:48;41.67;;;22.80;;
50773;SDS011;36745;48.544;8.918;2023-02-15T02:02:09;40.40;;;22.52;;
50773;SDS011;36745;48.544;8.918;2023-02-15T02:05:32;36.67;;;22.23;;
50773;SDS011;36745;48.544;8.918;2023-02-15T02:08:53;36.67;;;22.02;;
50773;SDS011;36745;48.544;8.918;2023-02-15T02:12:14;41.00;;;22.17;;
50773;SDS011;36745;48.544;8.918;2023-02-15T02:15:54;38.83;;;22.57;;
50773;SDS011;36745;48.544;8.918;2023-02-15T02:41:01;50.03;;;25.52;;
50773;SDS011;36745;48.544;8.918;2023-02-15T02:44:43;43.70;;;24.40;;
50773;SDS011;36745;48.544;8.918;2023-02-15T02:48:13;41.10;;;22.10;;
50773;SDS011;36745;48.544;8.918;2023-02-15T02:51:36;46.75;;;23.88;;
50773;SDS011;36745;48.544;8.918;2023-02-15T02:54:56;46.08;;;24.20;;
50773;SDS011;36745;48.544;8.918;2023-02-15T03:01:48;45.58;;;25.52;;
50773;SDS011;36745;48.544;8.918;2023-02-15T03:05:16;43.15;;;23.60;;
50773;SDS011;36745;48.544;8.918;2023-02-15T03:08:41;43.95;;;23.38;;
50773;SDS011;36745;48.544;8.918;2023-02-15T03:12:04;43.78;;;23.95;;
50773;SDS011;36745;48.544;8.918;2023-02-15T03:15:31;39.45;;;23.33;;
50773;SDS011;36745;48.544;8.918;2023-02-15T03:19:17;40.92;;;23.65;;
50773;SDS011;36745;48.544;8.918;2023-02-15T03:22:46;42.72;;;22.88;;
50773;SDS011;36745;48.544;8.918;2023-02-15T03:26:09;42.28;;;22.95;;
50773;SDS011;36745;48.544;8.918;2023-02-15T03:29:30;44.78;;;24.40;;
50773;SDS011;36745;48.544;8.918;2023-02-15T03:32:52;46.75;;;24.13;;
50773;SDS011;36745;48.544;8.918;2023-02-15T03:36:20;40.72;;;22.55;;
50773;SDS011;36745;48.544;8.918;2023-02-15T03:39:59;43.65;;;24.42;;
50773;SDS011;36745;48.544;8.918;2023-02-15T03:43:54;40.25;;;23.15;;
50773;SDS011;36745;48.544;8.918;2023-02-15T03:47:19;51.43;;;24.90;;
50773;SDS011;36745;48.544;8.918;2023-02-15T03:58:01;53.35;;;24.55;;
50773;SDS011;36745;48.544;8.918;2023-02-15T04:05:40;47.38;;;22.55;;
50773;SDS011;36745;48.544;8.918;2023-02-15T04:09:01;47.55;;;24.88;;
50773;SDS011;36745;48.544;8.918;2023-02-15T04:12:39;47.33;;;24.90;;
50773;SDS011;36745;48.544;8.918;2023-02-15T04:15:59;54.83;;;28.05;;
50773;SDS011;36745;48.544;8.918;2023-02-15T04:19:24;50.05;;;27.17;;
50773;SDS011;36745;48.544;8.918;2023-02-15T04:23:05;48.97;;;26.77;;
50773;SDS011;36745;48.544;8.918;2023-02-15T04:26:44;53.42;;;28.27;;
50773;SDS011;36745;48.544;8.918;2023-02-15T04:30:04;44.08;;;25.15;;
50773;SDS011;36745;48.544;8.918;2023-02-15T04:33:24;50.00;;;25.70;;
50773;SDS011;36745;48.544;8.918;2023-02-15T04:36:44;41.85;;;22.88;;
50773;SDS011;36745;48.544;8.918;2023-02-15T04:40:05;47.72;;;24.90;;
50773;SDS011;36745;48.544;8.918;2023-02-15T04:43:26;49.58;;;25.00;;
50773;SDS011;36745;48.544;8.918;2023-02-15T04:46:46;54.53;;;28.90;;
50773;SDS011;36745;48.544;8.918;2023-02-15T04:50:06;48.63;;;25.60;;
50773;SDS011;36745;48.544;8.918;2023-02-15T04:53:25;52.13;;;29.85;;
50773;SDS011;36745;48.544;8.918;2023-02-15T04:56:45;53.42;;;28.92;;
50773;SDS011;36745;48.544;8.918;2023-02-15T05:00:05;46.40;;;25.75;;
50773;SDS011;36745;48.544;8.918;2023-02-15T05:03:26;45.80;;;24.65;;
50773;SDS011;36745;48.544;8.918;2023-02-15T05:06:46;46.25;;;24.70;;
50773;SDS011;36745;48.544;8.918;2023-02-15T05:10:06;43.40;;;22.60;;
50773;SDS011;36745;48.544;8.918;2023-02-15T05:13:26;46.95;;;24.45;;
50773;SDS011;36745;48.544;8.918;2023-02-15T05:16:46;44.17;;;23.73;;
50773;SDS011;36745;48.544;8.918;2023-02-15T05:20:06;48.58;;;24.80;;
50773;SDS011;36745;48.544;8.918;2023-02-15T05:23:26;52.67;;;26.73;;
50773;SDS011;36745;48.544;8.918;2023-02-15T05:26:46;44.35;;;23.40;;
50773;SDS011;36745;48.544;8.918;2023-02-15T05:30:24;59.25;;;29.02;;
50773;SDS011;36745;48.544;8.918;2023-02-15T05:33:44;60.80;;;27.65;;
50773;SDS011;36745;48.544;8.918;2023-02-15T05:37:04;65.25;;;29.52;;
50773;SDS011;36745;48.544;8.918;2023-02-15T05:40:24;52.78;;;26.42;;
50773;SDS011;36745;48.544;8.918;2023-02-15T05:43:44;54.25;;;27.70;;
50773;SDS011;36745;48.544;8.918;2023-02-15T05:47:04;52.08;;;27.30;;
50773;SDS011;36745;48.544;8.918;2023-02-15T05:50:26;55.38;;;28.30;;
50773;SDS011;36745;48.544;8.918;2023-02-15T05:53:46;73.53;;;36.65;;
50773;SDS011;36745;48.544;8.918;2023-02-15T05:57:06;62.28;;;32.83;;
50773;SDS011;36745;48.544;8.918;2023-02-15T06:00:26;53.58;;;27.90;;
50773;SDS011;36745;48.544;8.918;2023-02-15T06:03:46;45.38;;;24.95;;
50773;SDS011;36745;48.544;8.918;2023-02-15T06:07:06;48.67;;;25.02;;
50773;SDS011;36745;48.544;8.918;2023-02-15T06:10:25;44.63;;;25.05;;
50773;SDS011;36745;48.544;8.918;2023-02-15T06:13:45;47.88;;;26.52;;
50773;SDS011;36745;48.544;8.918;2023-02-15T06:17:05;47.85;;;26.92;;
50773;SDS011;36745;48.544;8.918;2023-02-15T06:20:25;40.40;;;21.48;;
50773;SDS011;36745;48.544;8.918;2023-02-15T06:23:45;42.95;;;22.52;;
50773;SDS011;36745;48.544;8.918;2023-02-15T06:27:04;45.63;;;23.95;;
50773;SDS011;36745;48.544;8.918;2023-02-15T06:30:24;46.47;;;24.30;;
50773;SDS011;36745;48.544;8.918;2023-02-15T06:33:44;44.83;;;24.27;;
50773;SDS011;36745;48.544;8.918;2023-02-15T06:37:04;47.92;;;26.52;;
50773;SDS011;36745;48.544;8.918;2023-02-15T06:40:23;48.47;;;28.35;;
50773;SDS011;36745;48.544;8.918;2023-02-15T06:43:43;44.50;;;25.90;;
50773;SDS011;36745;48.544;8.918;2023-02-15T06:47:03;47.47;;;25.90;;
50773;SDS011;36745;48.544;8.918;2023-02-15T06:50:23;44.55;;;24.55;;
50773;SDS011;36745;48.544;8.918;2023-02-15T06:53:43;51.78;;;27.48;;
50773;SDS011;36745;48.544;8.918;2023-02-15T06:57:03;45.65;;;24.20;;
50773;SDS011;36745;48.544;8.918;2023-02-15T07:00:22;55.65;;;29.73;;
50773;SDS011;36745;48.544;8.918;2023-02-15T07:03:42;71.20;;;36.85;;
50773;SDS011;36745;48.544;8.918;2023-02-15T07:07:02;67.43;;;35.33;;
50773;SDS011;36745;48.544;8.918;2023-02-15T07:10:22;70.03;;;34.95;;
50773;SDS011;36745;48.544;8.918;2023-02-15T07:13:42;69.45;;;34.78;;
50773;SDS011;36745;48.544;8.918;2023-02-15T07:17:02;113.18;;;51.03;;
50773;SDS011;36745;48.544;8.918;2023-02-15T07:20:22;114.28;;;51.90;;
50773;SDS011;36745;48.544;8.918;2023-02-15T07:23:42;95.65;;;46.70;;
50773;SDS011;36745;48.544;8.918;2023-02-15T07:27:02;105.28;;;48.97;;
50773;SDS011;36745;48.544;8.918;2023-02-15T07:30:22;77.93;;;40.88;;
50773;SDS011;36745;48.544;8.918;2023-02-15T07:33:42;95.43;;;45.58;;
50773;SDS011;36745;48.544;8.918;2023-02-15T07:37:02;138.98;;;54.13;;
50773;SDS011;36745;48.544;8.918;2023-02-15T07:40:22;149.88;;;54.28;;
50773;SDS011;36745;48.544;8.918;2023-02-15T07:43:43;158.40;;;56.63;;
50773;SDS011;36745;48.544;8.918;2023-02-15T07:47:04;157.63;;;53.55;;
50773;SDS011;36745;48.544;8.918;2023-02-15T07:50:23;122.70;;;47.17;;
50773;SDS011;36745;48.544;8.918;2023-02-15T07:53:43;116.57;;;46.88;;
50773;SDS011;36745;48.544;8.918;2023-02-15T07:57:03;94.03;;;43.78;;
50773;SDS011;36745;48.544;8.918;2023-02-15T08:00:23;91.65;;;39.60;;
50773;SDS011;36745;48.544;8.918;2023-02-15T08:03:43;83.07;;;39.40;;
50773;SDS011;36745;48.544;8.918;2023-02-15T08:07:03;85.57;;;42.28;;
50773;SDS011;36745;48.544;8.918;2023-02-15T08:10:23;77.55;;;38.55;;
50773;SDS011;36745;48.544;8.918;2023-02-15T08:14:04;79.72;;;40.40;;
50773;SDS011;36745;48.544;8.918;2023-02-15T08:17:28;82.07;;;41.17;;
50773;SDS011;36745;48.544;8.918;2023-02-15T08:20:49;75.38;;;38.45;;
50773;SDS011;36745;48.544;8.918;2023-02-15T08:24:09;74.13;;;39.30;;
50773;SDS011;36745;48.544;8.918;2023-02-15T08:27:30;75.35;;;39.88;;
50773;SDS011;36745;48.544;8.918;2023-02-15T08:30:50;77.93;;;41.42;;
50773;SDS011;36745;48.544;8.918;2023-02-15T08:34:11;76.13;;;41.33;;
50773;SDS011;36745;48.544;8.918;2023-02-15T08:40:53;69.88;;;37.75;;
50773;SDS011;36745;48.544;8.918;2023-02-15T08:44:14;69.63;;;38.58;;
50773;SDS011;36745;48.544;8.918;2023-02-15T08:47:35;64.00;;;38.17;;
50773;SDS011;36745;48.544;8.918;2023-02-15T08:50:55;66.05;;;38.30;;
50773;SDS011;36745;48.544;8.918;2023-02-15T08:54:16;54.42;;;33.13;;
50773;SDS011;36745;48.544;8.918;2023-02-15T08:57:37;58.63;;;34.40;;
50773;SDS011;36745;48.544;8.918;2023-02-15T09:00:57;68.32;;;39.33;;
50773;SDS011;36745;48.544;8.918;2023-02-15T09:04:17;64.85;;;38.58;;
50773;SDS011;36745;48.544;8.918;2023-02-15T09:07:50;46.63;;;27.02;;
50773;SDS011;36745;48.544;8.918;2023-02-15T09:11:14;43.90;;;23.98;;
50773;SDS011;36745;48.544;8.918;2023-02-15T09:14:42;41.33;;;27.35;;
50773;SDS011;36745;48.544;8.918;2023-02-15T09:18:02;42.38;;;25.02;;
50773;SDS011;36745;48.544;8.918;2023-02-15T09:21:25;35.10;;;22.33;;
50773;SDS011;36745;48.544;8.918;2023-02-15T09:24:46;37.70;;;22.85;;
50773;SDS011;36745;48.544;8.918;2023-02-15T09:28:05;35.60;;;22.60;;
50773;SDS011;36745;48.544;8.918;2023-02-15T09:31:47;34.85;;;19.55;;
50773;SDS011;36745;48.544;8.918;2023-02-15T09:35:07;32.38;;;19.20;;
50773;SDS011;36745;48.544;8.918;2023-02-15T09:38:27;27.77;;;16.02;;
50773;SDS011;36745;48.544;8.918;2023-02-15T09:45:13;27.27;;;15.95;;
50773;SDS011;36745;48.544;8.918;2023-02-15T09:48:39;26.73;;;15.55;;
50773;SDS011;36745;48.544;8.918;2023-02-15T09:52:14;28.43;;;16.07;;
50773;SDS011;36745;48.544;8.918;2023-02-15T09:56:04;28.83;;;15.93;;
50773;SDS011;36745;48.544;8.918;2023-02-15T09:59:44;39.42;;;17.63;;
50773;SDS011;36745;48.544;8.918;2023-02-15T10:22:23;30.67;;;17.23;;
50773;SDS011;36745;48.544;8.918;2023-02-15T10:26:07;33.55;;;17.00;;
50773;SDS011;36745;48.544;8.918;2023-02-15T10:29:36;29.08;;;15.95;;
50773;SDS011;36745;48.544;8.918;2023-02-15T10:33:10;25.08;;;15.00;;
50773;SDS011;36745;48.544;8.918;2023-02-15T10:47:41;28.00;;;15.32;;
50773;SDS011;36745;48.544;8.918;2023-02-15T10:51:10;34.70;;;18.45;;
50773;SDS011;36745;48.544;8.918;2023-02-15T10:54:42;29.02;;;17.25;;
50773;SDS011;36745;48.544;8.918;2023-02-15T11:02:52;30.98;;;15.57;;
50773;SDS011;36745;48.544;8.918;2023-02-15T11:06:13;25.40;;;15.52;;
50773;SDS011;36745;48.544;8.918;2023-02-15T11:09:37;28.00;;;15.23;;
50773;SDS011;36745;48.544;8.918;2023-02-15T11:13:11;25.58;;;15.30;;
50773;SDS011;36745;48.544;8.918;2023-02-15T11:16:36;25.13;;;14.55;;
50773;SDS011;36745;48.544;8.918;2023-02-15T11:23:41;25.02;;;15.15;;
50773;SDS011;36745;48.544;8.918;2023-02-15T11:30:42;22.52;;;14.02;;
50773;SDS011;36745;48.544;8.918;2023-02-15T11:34:05;23.45;;;14.02;;
50773;SDS011;36745;48.544;8.918;2023-02-15T11:41:17;22.45;;;14.13;;
50773;SDS011;36745;48.544;8.918;2023-02-15T11:45:04;27.50;;;14.07;;
50773;SDS011;36745;48.544;8.918;2023-02-15T11:48:41;20.25;;;13.23;;
50773;SDS011;36745;48.544;8.918;2023-02-15T11:52:02;23.00;;;13.77;;
50773;SDS011;36745;48.544;8.918;2023-02-15T11:55:26;22.52;;;12.68;;
50773;SDS011;36745;48.544;8.918;2023-02-15T12:02:18;21.55;;;13.40;;
50773;SDS011;36745;48.544;8.918;2023-02-15T12:05:40;22.08;;;13.07;;
50773;SDS011;36745;48.544;8.918;2023-02-15T12:09:06;17.48;;;11.20;;
50773;SDS011;36745;48.544;8.918;2023-02-15T12:12:39;22.20;;;12.80;;
50773;SDS011;36745;48.544;8.918;2023-02-15T12:16:04;21.00;;;12.57;;
50773;SDS011;36745;48.544;8.918;2023-02-15T12:19:33;20.50;;;12.32;;
50773;SDS011;36745;48.544;8.918;2023-02-15T12:22:59;18.98;;;11.55;;
50773;SDS011;36745;48.544;8.918;2023-02-15T12:26:24;15.68;;;11.45;;
50773;SDS011;36745;48.544;8.918;2023-02-15T12:29:46;17.83;;;11.55;;
50773;SDS011;36745;48.544;8.918;2023-02-15T12:33:15;27.23;;;11.73;;
50773;SDS011;36745;48.544;8.918;2023-02-15T12:36:45;18.38;;;12.00;;
50773;SDS011;36745;48.544;8.918;2023-02-15T12:40:24;15.77;;;11.15;;
50773;SDS011;36745;48.544;8.918;2023-02-15T12:43:47;14.10;;;9.93;;
50773;SDS011;36745;48.544;8.918;2023-02-15T12:47:23;16.73;;;10.32;;
50773;SDS011;36745;48.544;8.918;2023-02-15T12:50:49;15.02;;;10.38;;
50773;SDS011;36745;48.544;8.918;2023-02-15T12:57:41;18.27;;;10.27;;
50773;SDS011;36745;48.544;8.918;2023-02-15T13:01:15;21.42;;;10.65;;
50773;SDS011;36745;48.544;8.918;2023-02-15T13:04:36;16.23;;;10.65;;
50773;SDS011;36745;48.544;8.918;2023-02-15T13:08:14;14.98;;;10.68;;
50773;SDS011;36745;48.544;8.918;2023-02-15T13:11:36;12.43;;;9.75;;
50773;SDS011;36745;48.544;8.918;2023-02-15T13:14:57;18.83;;;9.68;;
50773;SDS011;36745;48.544;8.918;2023-02-15T13:18:31;17.48;;;12.32;;
50773;SDS011;36745;48.544;8.918;2023-02-15T13:21:55;16.58;;;10.88;;
50773;SDS011;36745;48.544;8.918;2023-02-15T13:28:52;18.00;;;10.00;;
50773;SDS011;36745;48.544;8.918;2023-02-15T13:32:25;16.38;;;9.52;;
50773;SDS011;36745;48.544;8.918;2023-02-15T13:36:10;13.82;;;9.88;;
50773;SDS011;36745;48.544;8.918;2023-02-15T13:39:44;13.77;;;9.85;;
50773;SDS011;36745;48.544;8.918;2023-02-15T13:43:20;14.27;;;9.60;;
50773;SDS011;36745;48.544;8.918;2023-02-15T13:46:52;12.75;;;9.18;;
50773;SDS011;36745;48.544;8.918;2023-02-15T13:54:28;13.45;;;8.07;;
50773;SDS011;36745;48.544;8.918;2023-02-15T13:58:05;10.02;;;6.82;;
50773;SDS011;36745;48.544;8.918;2023-02-15T14:16:55;8.23;;;4.45;;
50773;SDS011;36745;48.544;8.918;2023-02-15T14:27:52;9.50;;;5.82;;
50773;SDS011;36745;48.544;8.918;2023-02-15T14:31:14;10.95;;;6.53;;
50773;SDS011;36745;48.544;8.918;2023-02-15T14:41:45;18.88;;;10.45;;
50773;SDS011;36745;48.544;8.918;2023-02-15T14:45:17;14.00;;;7.80;;
50773;SDS011;36745;48.544;8.918;2023-02-15T14:48:44;11.77;;;8.13;;
50773;SDS011;36745;48.544;8.918;2023-02-15T14:52:06;10.40;;;7.38;;
50773;SDS011;36745;48.544;8.918;2023-02-15T14:55:34;14.48;;;7.32;;
50773;SDS011;36745;48.544;8.918;2023-02-15T14:58:56;11.90;;;6.00;;
50773;SDS011;36745;48.544;8.918;2023-02-15T15:05:46;14.70;;;7.68;;
50773;SDS011;36745;48.544;8.918;2023-02-15T15:12:44;15.23;;;7.95;;
50773;SDS011;36745;48.544;8.918;2023-02-15T15:23:52;14.73;;;8.43;;
50773;SDS011;36745;48.544;8.918;2023-02-15T15:31:20;13.18;;;8.77;;
50773;SDS011;36745;48.544;8.918;2023-02-15T15:42:50;13.43;;;7.80;;
50773;SDS011;36745;48.544;8.918;2023-02-15T15:50:15;9.70;;;6.20;;
50773;SDS011;36745;48.544;8.918;2023-02-15T15:53:42;8.48;;;5.50;;
50773;SDS011;36745;48.544;8.918;2023-02-15T15:57:06;11.15;;;6.05;;
50773;SDS011;36745;48.544;8.918;2023-02-15T16:04:04;18.77;;;12.00;;
50773;SDS011;36745;48.544;8.918;2023-02-15T16:07:25;15.63;;;9.43;;
50773;SDS011;36745;48.544;8.918;2023-02-15T16:10:45;15.20;;;9.20;;
50773;SDS011;36745;48.544;8.918;2023-02-15T16:14:12;12.13;;;7.28;;
50773;SDS011;36745;48.544;8.918;2023-02-15T16:17:34;23.85;;;10.40;;
50773;SDS011;36745;48.544;8.918;2023-02-15T16:20:55;15.63;;;7.93;;
50773;SDS011;36745;48.544;8.918;2023-02-15T16:27:44;15.18;;;7.55;;
50773;SDS011;36745;48.544;8.918;2023-02-15T16:31:12;10.77;;;6.93;;
50773;SDS011;36745;48.544;8.918;2023-02-15T16:34:34;13.85;;;7.28;;
50773;SDS011;36745;48.544;8.918;2023-02-15T16:37:53;16.13;;;7.75;;
50773;SDS011;36745;48.544;8.918;2023-02-15T16:41:14;18.17;;;7.75;;
50773;SDS011;36745;48.544;8.918;2023-02-15T16:44:36;14.57;;;8.20;;
50773;SDS011;36745;48.544;8.918;2023-02-15T16:47:57;14.98;;;7.75;;
50773;SDS011;36745;48.544;8.918;2023-02-15T16:51:18;17.65;;;8.75;;
50773;SDS011;36745;48.544;8.918;2023-02-15T16:54:51;25.73;;;8.93;;
50773;SDS011;36745;48.544;8.918;2023-02-15T16:58:19;23.33;;;9.25;;
50773;SDS011;36745;48.544;8.918;2023-02-15T17:02:05;14.23;;;8.45;;
50773;SDS011;36745;48.544;8.918;2023-02-15T17:05:42;23.90;;;9.20;;
50773;SDS011;36745;48.544;8.918;2023-02-15T17:09:05;27.85;;;9.55;;
50773;SDS011;36745;48.544;8.918;2023-02-15T17:19:26;19.25;;;7.82;;
50773;SDS011;36745;48.544;8.918;2023-02-15T17:22:59;21.60;;;8.77;;
50773;SDS011;36745;48.544;8.918;2023-02-15T17:29:45;21.55;;;9.07;;
50773;SDS011;36745;48.544;8.918;2023-02-15T17:33:19;18.63;;;8.82;;
50773;SDS011;36745;48.544;8.918;2023-02-15T17:36:38;26.50;;;8.98;;
50773;SDS011;36745;48.544;8.918;2023-02-15T17:43:41;26.55;;;9.40;;
50773;SDS011;36745;48.544;8.918;2023-02-15T17:47:01;22.33;;;9.35;;
50773;SDS011;36745;48.544;8.918;2023-02-15T17:50:24;16.23;;;8.88;;
50773;SDS011;36745;48.544;8.918;2023-02-15T17:53:45;17.38;;;9.20;;
50773;SDS011;36745;48.544;8.918;2023-02-15T17:57:24;16.77;;;8.73;;
50773;SDS011;36745;48.544;8.918;2023-02-15T18:00:46;20.35;;;10.00;;
50773;SDS011;36745;48.544;8.918;2023-02-15T18:08:10;24.13;;;10.70;;
50773;SDS011;36745;48.544;8.918;2023-02-15T18:11:52;15.95;;;9.10;;
50773;SDS011;36745;48.544;8.918;2023-02-15T18:15:12;22.10;;;11.13;;
50773;SDS011;36745;48.544;8.918;2023-02-15T18:18:32;17.02;;;11.93;;
50773;SDS011;36745;48.544;8.918;2023-02-15T18:21:52;23.13;;;11.45;;
50773;SDS011;36745;48.544;8.918;2023-02-15T18:25:14;21.05;;;12.52;;
50773;SDS011;36745;48.544;8.918;2023-02-15T18:28:35;25.80;;;12.02;;
50773;SDS011;36745;48.544;8.918;2023-02-15T18:31:55;21.00;;;11.82;;
50773;SDS011;36745;48.544;8.918;2023-02-15T18:35:17;24.08;;;12.55;;
50773;SDS011;36745;48.544;8.918;2023-02-15T18:38:39;28.70;;;12.82;;
50773;SDS011;36745;48.544;8.918;2023-02-15T18:41:58;29.88;;;13.10;;
50773;SDS011;36745;48.544;8.918;2023-02-15T18:45:19;23.88;;;14.10;;
50773;SDS011;36745;48.544;8.918;2023-02-15T18:52:02;27.13;;;14.15;;
50773;SDS011;36745;48.544;8.918;2023-02-15T18:55:23;25.52;;;13.95;;
50773;SDS011;36745;48.544;8.918;2023-02-15T18:58:44;25.70;;;14.68;;
50773;SDS011;36745;48.544;8.918;2023-02-15T19:02:14;28.85;;;14.50;;
50773;SDS011;36745;48.544;8.918;2023-02-15T19:05:35;25.23;;;13.65;;
50773;SDS011;36745;48.544;8.918;2023-02-15T19:08:55;30.15;;;15.30;;
50773;SDS011;36745;48.544;8.918;2023-02-15T19:12:15;28.02;;;15.27;;
50773;SDS011;36745;48.544;8.918;2023-02-15T19:15:35;26.30;;;15.32;;
50773;SDS011;36745;48.544;8.918;2023-02-15T19:18:55;28.25;;;15.68;;
50773;SDS011;36745;48.544;8.918;2023-02-15T19:22:16;30.45;;;15.93;;
50773;SDS011;36745;48.544;8.918;2023-02-15T19:25:47;31.95;;;15.68;;
50773;SDS011;36745;48.544;8.918;2023-02-15T19:29:08;27.58;;;15.73;;
50773;SDS011;36745;48.544;8.918;2023-02-15T19:32:30;26.10;;;15.68;;
50773;SDS011;36745;48.544;8.918;2023-02-15T19:35:51;25.65;;;15.30;;
50773;SDS011;36745;48.544;8.918;2023-02-15T19:42:51;39.05;;;21.75;;
50773;SDS011;36745;48.544;8.918;2023-02-15T19:46:14;31.98;;;19.27;;
50773;SDS011;36745;48.544;8.918;2023-02-15T19:49:37;33.03;;;19.77;;
50773;SDS011;36745;48.544;8.918;2023-02-15T19:52:57;31.92;;;20.10;;
50773;SDS011;36745;48.544;8.918;2023-02-15T19:56:20;36.97;;;20.65;;
50773;SDS011;36745;48.544;8.918;2023-02-15T19:59:41;35.70;;;21.33;;
50773;SDS011;36745;48.544;8.918;2023-02-15T20:03:01;31.08;;;18.67;;
50773;SDS011;36745;48.544;8.918;2023-02-15T20:06:21;38.22;;;20.23;;
50773;SDS011;36745;48.544;8.918;2023-02-15T20:09:41;40.78;;;22.67;;
50773;SDS011;36745;48.544;8.918;2023-02-15T20:13:01;29.42;;;18.50;;
50773;SDS011;36745;48.544;8.918;2023-02-15T20:16:21;35.83;;;18.67;;
50773;SDS011;36745;48.544;8.918;2023-02-15T20:19:44;28.90;;;17.55;;
50773;SDS011;36745;48.544;8.918;2023-02-15T20:23:04;31.17;;;18.70;;
50773;SDS011;36745;48.544;8.918;2023-02-15T20:26:25;31.00;;;18.38;;
50773;SDS011;36745;48.544;8.918;2023-02-15T20:29:47;36.38;;;20.30;;
50773;SDS011;36745;48.544;8.918;2023-02-15T20:33:08;33.25;;;17.45;;
50773;SDS011;36745;48.544;8.918;2023-02-15T20:36:28;30.05;;;18.50;;
50773;SDS011;36745;48.544;8.918;2023-02-15T20:39:49;28.13;;;17.33;;
50773;SDS011;36745;48.544;8.918;2023-02-15T20:43:09;30.05;;;17.83;;
50773;SDS011;36745;48.544;8.918;2023-02-15T20:46:33;35.47;;;20.67;;
50773;SDS011;36745;48.544;8.918;2023-02-15T20:49:53;32.40;;;18.98;;
50773;SDS011;36745;48.544;8.918;2023-02-15T20:53:13;35.00;;;19.38;;
50773;SDS011;36745;48.544;8.918;2023-02-15T20:56:33;35.08;;;19.75;;
50773;SDS011;36745;48.544;8.918;2023-02-15T20:59:52;34.70;;;19.40;;
50773;SDS011;36745;48.544;8.918;2023-02-15T21:03:12;35.58;;;20.73;;
50773;SDS011;36745;48.544;8.918;2023-02-15T21:06:32;30.15;;;20.20;;
50773;SDS011;36745;48.544;8.918;2023-02-15T21:09:52;35.33;;;21.30;;
50773;SDS011;36745;48.544;8.918;2023-02-15T21:16:46;41.38;;;22.98;;
50773;SDS011;36745;48.544;8.918;2023-02-15T21:20:11;45.65;;;26.52;;
50773;SDS011;36745;48.544;8.918;2023-02-15T21:23:33;46.03;;;26.92;;
50773;SDS011;36745;48.544;8.918;2023-02-15T21:27:00;47.00;;;26.27;;
50773;SDS011;36745;48.544;8.918;2023-02-15T21:30:21;35.20;;;23.35;;
50773;SDS011;36745;48.544;8.918;2023-02-15T21:33:43;36.00;;;19.08;;
50773;SDS011;36745;48.544;8.918;2023-02-15T21:37:03;35.47;;;21.08;;
50773;SDS011;36745;48.544;8.918;2023-02-15T21:40:43;34.58;;;19.63;;
50773;SDS011;36745;48.544;8.918;2023-02-15T21:44:12;36.70;;;21.95;;
50773;SDS011;36745;48.544;8.918;2023-02-15T21:47:56;35.22;;;20.27;;
50773;SDS011;36745;48.544;8.918;2023-02-15T21:51:16;33.33;;;20.27;;
50773;SDS011;36745;48.544;8.918;2023-02-15T21:54:55;37.28;;;19.77;;
50773;SDS011;36745;48.544;8.918;2023-02-15T21:58:19;29.95;;;19.70;;
50773;SDS011;36745;48.544;8.918;2023-02-15T22:01:41;31.40;;;18.95;;
50773;SDS011;36745;48.544;8.918;2023-02-15T22:05:08;29.80;;;19.63;;
50773;SDS011;36745;48.544;8.918;2023-02-15T22:08:37;31.98;;;19.02;;
50773;SDS011;36745;48.544;8.918;2023-02-15T22:11:57;30.20;;;18.88;;
50773;SDS011;36745;48.544;8.918;2023-02-15T22:15:24;29.65;;;17.83;;
50773;SDS011;36745;48.544;8.918;2023-02-15T22:18:47;31.58;;;19.02;;
50773;SDS011;36745;48.544;8.918;2023-02-15T22:22:07;36.95;;;19.95;;
50773;SDS011;36745;48.544;8.918;2023-02-15T22:25:27;31.50;;;19.48;;
50773;SDS011;36745;48.544;8.918;2023-02-15T22:28:47;31.63;;;20.35;;
50773;SDS011;36745;48.544;8.918;2023-02-15T22:32:13;45.72;;;29.35;;
50773;SDS011;36745;48.544;8.918;2023-02-15T22:35:36;38.92;;;21.48;;
50773;SDS011;36745;48.544;8.918;2023-02-15T22:38:58;34.50;;;20.35;;
50773;SDS011;36745;48.544;8.918;2023-02-15T22:42:22;31.83;;;20.17;;
50773;SDS011;36745;48.544;8.918;2023-02-15T22:45:45;30.63;;;18.30;;
50773;SDS011;36745;48.544;8.918;2023-02-15T22:49:05;33.03;;;20.75;;
50773;SDS011;36745;48.544;8.918;2023-02-15T22:52:25;34.85;;;21.42;;
50773;SDS011;36745;48.544;8.918;2023-02-15T22:55:45;33.22;;;19.67;;
50773;SDS011;36745;48.544;8.918;2023-02-15T22:59:06;34.83;;;19.77;;
50773;SDS011;36745;48.544;8.918;2023-02-15T23:02:32;33.13;;;19.00;;
50773;SDS011;36745;48.544;8.918;2023-02-15T23:05:52;36.70;;;19.65;;
50773;SDS011;36745;48.544;8.918;2023-02-15T23:09:11;39.42;;;19.20;;
50773;SDS011;36745;48.544;8.918;2023-02-15T23:12:31;34.47;;;20.98;;
50773;SDS011;36745;48.544;8.918;2023-02-15T23:16:17;32.05;;;19.42;;